Airfield :
LOGIN :

Register | Disclaimer

   EN    FR    IT 

 










Legend :    VFR   Marginal VFR   IFR   Intensive IFR   Very Intensive IFR
Visi :
Ceiling :
>= 8 km
>= 3000ft
5 to 8 km
1000 to 3000 ft
1500m to 5 km
500 to 1000 ft
800 to 1500m
200 to 500 ft
< 800m
< 200 ft
Symbols :   Thunderstorms  Fog  Heavy snow  Heavy precipitations  Wind > 20 kt
SIGMETs :     Misc.  Thunderstorms  Icing  Turbulence  Mountain Waves  Volcanic Ashes






- Airport Elevation : 1161 ft
- IATA code : RJL


LELO - Logroño-Agoncillo

CURRENT METAR :
  • 280530Z AUTO 26011KT 240V300 9999 FEW028 BKN046 BKN057 08/05 Q1020

EXPIRED METARs :
  • 280500Z AUTO 27008KT 240V300 9999 BKN043 OVC049 08/06 Q1020
  • 280300Z AUTO 32004KT 270V010 9000 BKN041 07/07 Q1020

TAF TAF LELO
Valid from the 28 at 03:00 until the 29 at 03:00 UTC


280200Z 2803/2903 28010KT 9999 SCT040 TX13/2815Z TN02/2806Z
PROB30
TEMPO 2811/2817 27015G25KT



MET'MAP, your aeronautical weather chart ! - Copyright ORBIFLY December 2007 - Disclaimer

ORBIFLY MET'MAP TEAM :

Programming & Development : Alexandra Zaïnal
Original concept : Baudouin d'Aumeries
Technical & hardware support : Manuel Goepfert
Assistance : Marc-Olivier Méhu




SOURCES & CREDITS :

   NOAA